Time;durP1;ratioP1;P1;durP2;ratioP2;P2;SDS_P1;SDS_P2;PMS_P1;PMS_P2;Temp;Humidity;BMP_temperature;BMP_pressure;BME280_temperature;BME280_humidity;BME280_pressure;Samples;Min_cycle;Max_cycle;Signal;HPM_P1;HPM_P2
2022/12/01 00:00:40;;;;;;;24.30;12.93;;;;;;;;;;8285593;28;20061;-86
2022/12/01 00:04:54;;;;;;;23.83;13.07;;;;;;;;;;8281265;28;20101;-87
2022/12/01 00:13:18;;;;;;;20.98;10.80;;;;;;;;;;8297447;28;20050;-89
2022/12/01 00:17:21;;;;;;;26.08;13.40;;;;;;;;;;8291351;28;20454;-89
2022/12/01 00:21:25;;;;;;;30.77;12.55;;;;;;;;;;8297239;28;20512;-89
2022/12/01 00:25:29;;;;;;;21.13;10.43;;;;;;;;;;8297747;28;20065;-89
2022/12/01 00:29:32;;;;;;;28.38;11.75;;;;;;;;;;8297436;28;20497;-87
2022/12/01 00:33:35;;;;;;;22.83;10.95;;;;;;;;;;8297493;28;20060;-89
2022/12/01 00:37:37;;;;;;;32.55;14.02;;;;;;;;;;8297553;28;20054;-85
2022/12/01 00:41:41;;;;;;;29.50;13.65;;;;;;;;;;8297323;28;20112;-90
2022/12/01 00:45:44;;;;;;;26.25;12.65;;;;;;;;;;8297078;28;20125;-88
2022/12/01 00:49:47;;;;;;;32.10;14.10;;;;;;;;;;8296498;28;20100;-89
2022/12/01 00:53:49;;;;;;;29.58;12.88;;;;;;;;;;8297326;28;20046;-87
2022/12/01 00:57:54;;;;;;;30.17;13.13;;;;;;;;;;8296035;28;20046;-90
2022/12/01 01:01:56;;;;;;;42.47;16.33;;;;;;;;;;8297096;28;20121;-91
2022/12/01 01:06:04;;;;;;;30.70;12.50;;;;;;;;;;8296782;28;20045;-91
2022/12/01 01:10:08;;;;;;;25.88;11.45;;;;;;;;;;8296293;28;20056;-86
2022/12/01 01:14:12;;;;;;;30.48;12.98;;;;;;;;;;8283384;28;20128;-89
2022/12/01 01:18:15;;;;;;;25.55;11.82;;;;;;;;;;8296510;28;20046;-88
2022/12/01 01:22:17;;;;;;;25.17;11.30;;;;;;;;;;8296562;28;20045;-88
2022/12/01 01:26:23;;;;;;;32.78;13.95;;;;;;;;;;8296082;28;20493;-86
2022/12/01 01:30:27;;;;;;;32.42;13.57;;;;;;;;;;8287009;28;20516;-89
2022/12/01 01:34:30;;;;;;;32.40;13.65;;;;;;;;;;8296398;28;20128;-87
2022/12/01 01:38:33;;;;;;;36.58;15.52;;;;;;;;;;8296274;28;20076;-88
2022/12/01 01:42:35;;;;;;;26.38;11.93;;;;;;;;;;8296476;28;20038;-89
2022/12/01 01:46:39;;;;;;;27.60;11.85;;;;;;;;;;8295546;28;20129;-88
2022/12/01 01:50:42;;;;;;;29.35;13.25;;;;;;;;;;8296107;28;20042;-87
2022/12/01 01:54:47;;;;;;;24.55;11.15;;;;;;;;;;8296129;28;20053;-89
2022/12/01 01:58:51;;;;;;;27.20;12.60;;;;;;;;;;8297651;28;20049;-89
2022/12/01 02:02:58;;;;;;;29.25;13.32;;;;;;;;;;8301686;28;20049;-88
2022/12/01 02:07:00;;;;;;;21.73;10.38;;;;;;;;;;8303313;28;20088;-89
2022/12/01 02:11:30;;;;;;;28.30;12.40;;;;;;;;;;8302230;28;20052;-89
2022/12/01 02:15:40;;;;;;;31.38;12.85;;;;;;;;;;8300645;28;20482;-90
2022/12/01 02:20:03;;;;;;;25.38;11.45;;;;;;;;;;8302126;28;20516;-90
2022/12/01 02:24:32;;;;;;;25.75;12.40;;;;;;;;;;8290772;28;20132;-90
2022/12/01 02:28:56;;;;;;;25.27;10.63;;;;;;;;;;8301431;28;20069;-89
2022/12/01 02:33:07;;;;;;;21.58;9.68;;;;;;;;;;8301954;28;20050;-88
2022/12/01 02:37:28;;;;;;;25.35;10.90;;;;;;;;;;8301429;28;20049;-88
2022/12/01 02:41:36;;;;;;;24.48;10.70;;;;;;;;;;8301390;28;20045;-86
2022/12/01 02:45:45;;;;;;;21.25;9.90;;;;;;;;;;8301441;28;20425;-88
2022/12/01 02:49:50;;;;;;;23.58;10.85;;;;;;;;;;8300131;28;20068;-86
2022/12/01 02:53:55;;;;;;;20.85;10.40;;;;;;;;;;8300399;28;20121;-89
2022/12/01 02:57:57;;;;;;;19.17;7.75;;;;;;;;;;8300380;28;20516;-88
2022/12/01 03:02:09;;;;;;;21.95;11.65;;;;;;;;;;8299688;28;20103;-89
2022/12/01 03:06:21;;;;;;;20.67;10.60;;;;;;;;;;8299967;28;20096;-90
2022/12/01 03:10:29;;;;;;;24.50;11.88;;;;;;;;;;8298567;28;20042;-88
2022/12/01 03:14:39;;;;;;;20.83;9.20;;;;;;;;;;8299916;28;20096;-88
2022/12/01 03:18:48;;;;;;;19.10;8.70;;;;;;;;;;8286051;28;20481;-88
2022/12/01 03:22:56;;;;;;;17.25;9.02;;;;;;;;;;8299657;28;20037;-88
2022/12/01 03:27:02;;;;;;;19.55;9.35;;;;;;;;;;8299186;28;20064;-87
2022/12/01 03:31:08;;;;;;;18.63;8.73;;;;;;;;;;8299141;28;20050;-87
2022/12/01 03:35:17;;;;;;;18.77;9.10;;;;;;;;;;8298376;28;20121;-87
2022/12/01 03:39:24;;;;;;;23.90;11.77;;;;;;;;;;8299189;28;20050;-87
2022/12/01 03:43:31;;;;;;;29.83;12.57;;;;;;;;;;8298490;28;20056;-87
2022/12/01 03:47:36;;;;;;;24.83;10.50;;;;;;;;;;8298598;28;20038;-88
2022/12/01 03:51:45;;;;;;;20.17;10.38;;;;;;;;;;8298515;28;20452;-87
2022/12/01 03:55:56;;;;;;;19.48;8.02;;;;;;;;;;8297575;28;20092;-89
2022/12/01 03:59:59;;;;;;;21.50;9.90;;;;;;;;;;8284978;28;20042;-88
2022/12/01 04:04:06;;;;;;;20.10;9.10;;;;;;;;;;8298384;28;20052;-87
2022/12/01 04:08:08;;;;;;;19.98;9.18;;;;;;;;;;8297562;28;20054;-89
2022/12/01 04:12:32;;;;;;;18.40;8.98;;;;;;;;;;8298069;28;20478;-86
2022/12/01 04:16:35;;;;;;;21.02;9.00;;;;;;;;;;8297950;28;20074;-87
2022/12/01 04:20:38;;;;;;;19.20;9.45;;;;;;;;;;8296234;28;20052;-89
2022/12/01 04:24:40;;;;;;;18.83;9.18;;;;;;;;;;8297551;28;20048;-88
2022/12/01 04:28:44;;;;;;;19.10;9.38;;;;;;;;;;8291742;28;20394;-87
2022/12/01 04:32:47;;;;;;;21.25;8.70;;;;;;;;;;8285849;28;20464;-89
2022/12/01 04:36:49;;;;;;;19.55;8.82;;;;;;;;;;8275235;28;20046;-89
2022/12/01 04:40:52;;;;;;;20.48;8.95;;;;;;;;;;8284574;28;20038;-85
2022/12/01 04:44:59;;;;;;;21.95;9.77;;;;;;;;;;8293142;28;20061;-89
2022/12/01 04:49:01;;;;;;;23.58;10.13;;;;;;;;;;8286094;28;20046;-89
2022/12/01 04:53:04;;;;;;;18.52;9.30;;;;;;;;;;8280875;28;20042;-87
2022/12/01 04:57:07;;;;;;;19.63;9.13;;;;;;;;;;8289696;28;20052;-87
2022/12/01 05:01:13;;;;;;;16.73;7.95;;;;;;;;;;8294951;28;20076;-87
2022/12/01 05:05:16;;;;;;;22.92;9.73;;;;;;;;;;8296530;28;20046;-87
2022/12/01 05:09:20;;;;;;;16.88;8.68;;;;;;;;;;8296744;28;20095;-89
2022/12/01 05:13:22;;;;;;;26.15;11.52;;;;;;;;;;8295872;28;20042;-89
2022/12/01 05:17:34;;;;;;;24.95;11.95;;;;;;;;;;8296459;28;20132;-88
2022/12/01 05:21:36;;;;;;;64.97;39.25;;;;;;;;;;8292186;28;20057;-84
2022/12/01 05:25:41;;;;;;;38.13;14.30;;;;;;;;;;8274208;28;20076;-87
2022/12/01 05:29:43;;;;;;;42.95;16.58;;;;;;;;;;8296194;28;20448;-88
2022/12/01 05:33:48;;;;;;;44.63;15.13;;;;;;;;;;8290316;28;20095;-87
2022/12/01 05:37:50;;;;;;;20.25;10.13;;;;;;;;;;8292318;28;20041;-87
2022/12/01 05:41:53;;;;;;;31.30;12.30;;;;;;;;;;8297016;28;20038;-88
2022/12/01 05:45:56;;;;;;;25.35;10.05;;;;;;;;;;8295985;28;20493;-90
2022/12/01 05:50:01;;;;;;;20.08;9.88;;;;;;;;;;8300384;28;20057;-90
2022/12/01 05:54:04;;;;;;;13.65;5.82;;;;;;;;;;8305985;28;20073;-90
2022/12/01 05:58:07;;;;;;;37.22;13.65;;;;;;;;;;8304870;28;20068;-90
2022/12/01 06:02:09;;;;;;;305.95;51.78;;;;;;;;;;8302624;28;20045;-86
2022/12/01 06:06:14;;;;;;;64.13;15.00;;;;;;;;;;8284338;28;20461;-89
2022/12/01 06:10:16;;;;;;;58.00;16.30;;;;;;;;;;8301645;28;20478;-89
2022/12/01 06:14:19;;;;;;;28.73;14.00;;;;;;;;;;8301770;28;20497;-89
2022/12/01 06:18:22;;;;;;;38.47;18.58;;;;;;;;;;8301246;28;20049;-90
2022/12/01 06:22:26;;;;;;;29.92;10.70;;;;;;;;;;8301879;28;20128;-89
2022/12/01 06:26:29;;;;;;;30.98;11.55;;;;;;;;;;8301555;28;20485;-88
2022/12/01 06:30:34;;;;;;;87.97;23.70;;;;;;;;;;8301561;28;20041;-84
2022/12/01 06:34:36;;;;;;;30.42;15.35;;;;;;;;;;8301548;28;20123;-89
2022/12/01 06:38:41;;;;;;;30.30;13.68;;;;;;;;;;8301381;28;20132;-88
2022/12/01 06:42:43;;;;;;;21.30;10.10;;;;;;;;;;8301247;28;20050;-87
2022/12/01 06:46:46;;;;;;;33.10;12.45;;;;;;;;;;8299802;28;20084;-90
2022/12/01 06:50:48;;;;;;;18.17;9.82;;;;;;;;;;8300527;28;20099;-88
2022/12/01 06:54:53;;;;;;;24.90;11.30;;;;;;;;;;8300474;28;20128;-89
2022/12/01 06:58:56;;;;;;;23.48;10.52;;;;;;;;;;8299711;28;20065;-88
2022/12/01 07:02:58;;;;;;;23.55;11.00;;;;;;;;;;8300595;28;20045;-85
2022/12/01 07:07:01;;;;;;;19.30;8.85;;;;;;;;;;8300452;28;20053;-88
2022/12/01 07:11:07;;;;;;;19.83;10.23;;;;;;;;;;8289501;28;20046;-86
2022/12/01 07:15:11;;;;;;;18.02;9.25;;;;;;;;;;8288151;28;20049;-88
2022/12/01 07:19:14;;;;;;;23.27;11.57;;;;;;;;;;8292363;28;20057;-90
2022/12/01 07:23:16;;;;;;;17.58;9.38;;;;;;;;;;8285619;28;20033;-88
2022/12/01 07:27:20;;;;;;;22.70;11.35;;;;;;;;;;8296970;28;20091;-87
2022/12/01 07:31:24;;;;;;;18.15;10.07;;;;;;;;;;8297801;28;20046;-87
2022/12/01 07:35:26;;;;;;;25.80;12.75;;;;;;;;;;8299241;28;20049;-87
2022/12/01 07:39:29;;;;;;;26.52;12.20;;;;;;;;;;8299316;28;20136;-87
2022/12/01 07:43:34;;;;;;;25.27;12.40;;;;;;;;;;8281582;28;20096;-87
2022/12/01 07:47:37;;;;;;;18.15;9.35;;;;;;;;;;8293028;28;20045;-89
2022/12/01 07:51:40;;;;;;;22.80;11.00;;;;;;;;;;8297946;28;20042;-89
2022/12/01 07:55:49;;;;;;;15.10;8.15;;;;;;;;;;8296946;28;20080;-86
2022/12/01 07:59:55;;;;;;;21.50;11.48;;;;;;;;;;8295815;28;20042;-87
2022/12/01 08:03:59;;;;;;;21.88;10.48;;;;;;;;;;8293403;28;20054;-89
2022/12/01 08:08:01;;;;;;;21.92;11.68;;;;;;;;;;8297746;28;20141;-89
2022/12/01 08:12:08;;;;;;;19.17;10.15;;;;;;;;;;8296576;28;20124;-90
2022/12/01 08:16:14;;;;;;;21.98;10.50;;;;;;;;;;8296750;28;20451;-89
2022/12/01 08:20:17;;;;;;;17.15;10.18;;;;;;;;;;8294828;28;20039;-90
2022/12/01 08:24:19;;;;;;;17.98;10.00;;;;;;;;;;8291579;28;20483;-88
2022/12/01 08:28:22;;;;;;;30.30;14.88;;;;;;;;;;8286010;28;20061;-85
2022/12/01 08:32:28;;;;;;;15.77;8.05;;;;;;;;;;8291147;28;20480;-87
2022/12/01 08:36:31;;;;;;;29.52;14.88;;;;;;;;;;8297190;28;20072;-87
2022/12/01 08:40:33;;;;;;;18.58;10.35;;;;;;;;;;8297109;28;20038;-88
2022/12/01 08:44:36;;;;;;;31.05;16.10;;;;;;;;;;8296530;28;20049;-90
2022/12/01 08:48:40;;;;;;;93.53;35.42;;;;;;;;;;8295852;28;20470;-88
2022/12/01 08:52:44;;;;;;;23.27;11.75;;;;;;;;;;8290030;28;20042;-88
2022/12/01 08:56:49;;;;;;;22.13;11.88;;;;;;;;;;8279046;28;20434;-87
2022/12/01 09:00:52;;;;;;;33.40;18.33;;;;;;;;;;8269215;28;20049;-90
2022/12/01 09:04:56;;;;;;;30.80;14.40;;;;;;;;;;8291761;28;20129;-89
2022/12/01 09:08:59;;;;;;;24.77;11.60;;;;;;;;;;8281894;28;20050;-88
2022/12/01 09:13:02;;;;;;;33.80;17.58;;;;;;;;;;8276818;28;20057;-87
2022/12/01 09:17:05;;;;;;;21.75;10.88;;;;;;;;;;8285382;28;20049;-88
2022/12/01 09:21:17;;;;;;;24.10;11.45;;;;;;;;;;8284298;28;20144;-88
2022/12/01 09:25:20;;;;;;;28.33;14.75;;;;;;;;;;8277199;28;20057;-88
2022/12/01 09:29:24;;;;;;;19.98;10.68;;;;;;;;;;8274782;28;20137;-90
2022/12/01 09:33:26;;;;;;;28.92;13.95;;;;;;;;;;8282914;28;20127;-85
2022/12/01 09:37:31;;;;;;;21.25;9.93;;;;;;;;;;8295744;28;20412;-88
2022/12/01 09:41:37;;;;;;;23.30;12.13;;;;;;;;;;8284754;28;20100;-88
2022/12/01 09:45:44;;;;;;;22.20;11.45;;;;;;;;;;8279094;28;20450;-89
2022/12/01 09:49:54;;;;;;;33.28;16.70;;;;;;;;;;8280450;28;20104;-90
2022/12/01 09:54:01;;;;;;;20.45;11.10;;;;;;;;;;8290314;28;20072;-89
2022/12/01 09:58:09;;;;;;;22.17;10.85;;;;;;;;;;8286770;28;20046;-86
2022/12/01 10:02:27;;;;;;;21.75;10.38;;;;;;;;;;8283324;28;20080;-88
2022/12/01 10:06:37;;;;;;;15.80;9.07;;;;;;;;;;8282894;28;20053;-89
2022/12/01 10:10:46;;;;;;;23.08;11.65;;;;;;;;;;8285338;28;20046;-88
2022/12/01 10:14:50;;;;;;;21.52;8.20;;;;;;;;;;8271848;28;20481;-87
2022/12/01 10:19:00;;;;;;;48.08;20.92;;;;;;;;;;8290162;28;20100;-86
2022/12/01 10:23:21;;;;;;;24.15;13.18;;;;;;;;;;8285184;28;20070;-88
2022/12/01 10:27:39;;;;;;;43.97;21.67;;;;;;;;;;8282306;28;20061;-87
2022/12/01 10:31:52;;;;;;;56.13;26.52;;;;;;;;;;8294715;28;20049;-92
2022/12/01 10:35:54;;;;;;;63.53;32.90;;;;;;;;;;8301666;28;20497;-87
2022/12/01 10:39:58;;;;;;;60.47;29.20;;;;;;;;;;8292571;28;20515;-88
2022/12/01 10:44:07;;;;;;;45.80;26.60;;;;;;;;;;8283086;28;20716;-89
2022/12/01 10:48:15;;;;;;;102.45;38.78;;;;;;;;;;8288868;28;20149;-88
2022/12/01 10:52:36;;;;;;;48.63;20.85;;;;;;;;;;8285972;28;20050;-87
2022/12/01 10:56:40;;;;;;;69.47;28.50;;;;;;;;;;8296255;28;20042;-84
2022/12/01 11:00:54;;;;;;;16.80;9.77;;;;;;;;;;8292257;28;20071;-84
2022/12/01 11:05:00;;;;;;;16.73;9.45;;;;;;;;;;8275904;28;20057;-88
2022/12/01 11:09:04;;;;;;;19.15;10.50;;;;;;;;;;8286565;28;20179;-90
2022/12/01 11:13:17;;;;;;;39.38;19.42;;;;;;;;;;8300003;28;20049;-87
2022/12/01 11:17:31;;;;;;;35.75;16.30;;;;;;;;;;8289362;28;20046;-87
2022/12/01 11:21:34;;;;;;;30.52;15.40;;;;;;;;;;8285540;28;20129;-88
2022/12/01 11:25:37;;;;;;;33.67;15.45;;;;;;;;;;8296207;28;20050;-87
2022/12/01 11:29:40;;;;;;;15.70;9.23;;;;;;;;;;8294780;28;20061;-90
2022/12/01 11:33:50;;;;;;;15.15;7.03;;;;;;;;;;8296343;28;20072;-89
2022/12/01 11:37:56;;;;;;;27.70;12.70;;;;;;;;;;8294138;28;20045;-87
2022/12/01 11:42:02;;;;;;;18.92;9.93;;;;;;;;;;8296738;28;20500;-89
2022/12/01 11:46:09;;;;;;;21.15;10.30;;;;;;;;;;8287722;28;20046;-88
2022/12/01 11:50:26;;;;;;;20.90;11.48;;;;;;;;;;8284824;28;20057;-88
2022/12/01 11:54:29;;;;;;;28.58;14.30;;;;;;;;;;8287271;28;20056;-86
2022/12/01 11:58:31;;;;;;;26.52;15.30;;;;;;;;;;8295274;28;20057;-87
2022/12/01 12:02:42;;;;;;;11.32;7.03;;;;;;;;;;8291789;28;20141;-88
2022/12/01 12:06:54;;;;;;;16.02;9.55;;;;;;;;;;8281635;28;20497;-87
2022/12/01 12:11:09;;;;;;;21.35;11.25;;;;;;;;;;8269991;28;20053;-90
2022/12/01 12:15:26;;;;;;;52.28;22.02;;;;;;;;;;8284224;28;20300;-89
2022/12/01 12:19:46;;;;;;;64.40;20.52;;;;;;;;;;8290584;28;20141;-88
2022/12/01 12:24:18;;;;;;;58.33;20.45;;;;;;;;;;8290040;28;20460;-86
2022/12/01 12:28:36;;;;;;;91.97;28.50;;;;;;;;;;8258815;28;20057;-86
2022/12/01 12:32:50;;;;;;;50.95;19.20;;;;;;;;;;8270091;28;20077;-87
2022/12/01 12:37:11;;;;;;;18.85;8.07;;;;;;;;;;8264650;28;20070;-90
2022/12/01 12:41:28;;;;;;;193.55;61.28;;;;;;;;;;8293231;28;20049;-90
2022/12/01 12:45:54;;;;;;;60.97;24.90;;;;;;;;;;8286528;28;20069;-91
2022/12/01 12:50:04;;;;;;;72.30;29.08;;;;;;;;;;8288403;28;20141;-88
2022/12/01 12:54:18;;;;;;;45.95;20.10;;;;;;;;;;8306742;28;20050;-83
2022/12/01 12:58:27;;;;;;;27.05;11.50;;;;;;;;;;8290738;28;20129;-88
2022/12/01 13:02:38;;;;;;;58.25;22.38;;;;;;;;;;8279812;28;20449;-88
2022/12/01 13:06:47;;;;;;;126.65;42.53;;;;;;;;;;8286755;28;20057;-89
2022/12/01 13:10:56;;;;;;;49.03;16.98;;;;;;;;;;8291092;28;20041;-85
2022/12/01 13:15:05;;;;;;;29.15;11.85;;;;;;;;;;8281449;28;20041;-89
2022/12/01 13:19:14;;;;;;;44.58;18.40;;;;;;;;;;8294573;28;20050;-90
2022/12/01 13:23:20;;;;;;;19.63;9.82;;;;;;;;;;8275229;28;20165;-89
2022/12/01 13:27:25;;;;;;;102.38;33.25;;;;;;;;;;8295393;28;20060;-89
2022/12/01 13:31:29;;;;;;;58.45;21.08;;;;;;;;;;8284977;28;20057;-86
2022/12/01 13:35:35;;;;;;;44.72;17.65;;;;;;;;;;8281921;28;20096;-89
2022/12/01 13:39:39;;;;;;;82.38;28.85;;;;;;;;;;8284898;28;20042;-87
2022/12/01 13:43:59;;;;;;;100.00;32.80;;;;;;;;;;8290686;28;20095;-88
2022/12/01 13:48:05;;;;;;;42.03;17.60;;;;;;;;;;8295328;28;20061;-89
2022/12/01 13:52:32;;;;;;;13.32;6.65;;;;;;;;;;8272719;28;20557;-86
2022/12/01 13:56:45;;;;;;;23.45;10.95;;;;;;;;;;8295241;28;20549;-87
2022/12/01 14:00:49;;;;;;;18.75;10.65;;;;;;;;;;8290392;28;20046;-87
2022/12/01 14:04:53;;;;;;;28.75;11.55;;;;;;;;;;8289748;28;20398;-89
2022/12/01 14:09:01;;;;;;;22.55;9.27;;;;;;;;;;8289952;28;20406;-82
2022/12/01 14:13:07;;;;;;;118.75;35.85;;;;;;;;;;8294142;28;20082;-89
2022/12/01 14:17:26;;;;;;;35.60;15.55;;;;;;;;;;8290905;28;20049;-88
2022/12/01 14:21:48;;;;;;;67.95;25.60;;;;;;;;;;8293858;28;20116;-92
2022/12/01 14:26:01;;;;;;;20.45;10.23;;;;;;;;;;8295609;28;20049;-93
2022/12/01 14:30:43;;;;;;;24.98;12.73;;;;;;;;;;8292793;28;20050;-91
2022/12/01 14:34:49;;;;;;;42.83;17.70;;;;;;;;;;8298983;28;20056;-92
2022/12/01 14:39:00;;;;;;;43.13;18.38;;;;;;;;;;8292140;28;20046;-88
2022/12/01 14:47:31;;;;;;;24.70;10.33;;;;;;;;;;8300584;28;20343;-86
2022/12/01 14:51:37;;;;;;;48.75;20.58;;;;;;;;;;8288903;28;20474;-93
2022/12/01 14:55:46;;;;;;;45.55;20.45;;;;;;;;;;8268619;28;20055;-89
2022/12/01 15:00:03;;;;;;;31.00;11.68;;;;;;;;;;8298210;28;20121;-91
2022/12/01 15:04:06;;;;;;;37.90;15.57;;;;;;;;;;8297931;28;20053;-85
2022/12/01 15:13:20;;;;;;;91.03;34.60;;;;;;;;;;8307797;28;20047;-93
2022/12/01 15:21:50;;;;;;;44.20;18.77;;;;;;;;;;8322132;28;20041;-86
2022/12/01 15:25:59;;;;;;;116.95;41.28;;;;;;;;;;8312156;28;20026;-88
2022/12/01 15:30:48;;;;;;;41.53;15.82;;;;;;;;;;8170286;29;20059;-84
2022/12/01 15:34:54;;;;;;;144.85;45.70;;;;;;;;;;8181859;29;20570;-88
2022/12/01 15:39:00;;;;;;;49.30;18.60;;;;;;;;;;8163991;29;20056;-86
2022/12/01 15:43:06;;;;;;;79.75;27.98;;;;;;;;;;8165119;29;20087;-87
2022/12/01 15:47:34;;;;;;;98.03;33.40;;;;;;;;;;8163912;29;20052;-85
2022/12/01 15:51:37;;;;;;;148.75;40.10;;;;;;;;;;8163733;29;20055;-89
2022/12/01 15:55:40;;;;;;;125.88;41.08;;;;;;;;;;8160563;29;20060;-89
2022/12/01 15:59:46;;;;;;;52.72;20.35;;;;;;;;;;8176962;29;20622;-90
2022/12/01 16:03:54;;;;;;;33.25;11.73;;;;;;;;;;8167439;29;20052;-91
2022/12/01 16:07:58;;;;;;;41.83;16.58;;;;;;;;;;8162076;29;20078;-88
2022/12/01 16:12:05;;;;;;;53.15;21.13;;;;;;;;;;8161528;29;20114;-90
2022/12/01 16:16:23;;;;;;;30.60;11.57;;;;;;;;;;8164268;29;20064;-90
2022/12/01 16:20:32;;;;;;;130.68;39.40;;;;;;;;;;8151590;29;20059;-90
2022/12/01 16:24:38;;;;;;;48.47;15.63;;;;;;;;;;8165710;29;20055;-89
2022/12/01 16:28:41;;;;;;;133.38;38.97;;;;;;;;;;8259516;28;20490;-91
2022/12/01 16:32:44;;;;;;;101.25;31.58;;;;;;;;;;8282617;28;20068;-84
2022/12/01 16:36:48;;;;;;;22.08;10.07;;;;;;;;;;8289103;28;20108;-89
2022/12/01 16:40:53;;;;;;;67.32;22.63;;;;;;;;;;8295923;28;20401;-91
2022/12/01 16:44:56;;;;;;;216.52;59.80;;;;;;;;;;8269889;28;20112;-84
2022/12/01 16:49:00;;;;;;;116.88;41.85;;;;;;;;;;8289739;28;20054;-86
2022/12/01 16:53:04;;;;;;;28.77;13.10;;;;;;;;;;8286799;28;20046;-87
2022/12/01 16:57:07;;;;;;;100.00;28.73;;;;;;;;;;8273842;28;20498;-87
2022/12/01 17:01:10;;;;;;;37.95;15.73;;;;;;;;;;8292015;28;20486;-86
2022/12/01 17:05:13;;;;;;;52.40;21.25;;;;;;;;;;8282588;28;20049;-92
2022/12/01 17:09:17;;;;;;;24.17;11.82;;;;;;;;;;8295385;28;20133;-85
2022/12/01 17:13:22;;;;;;;63.17;23.10;;;;;;;;;;8286650;28;20045;-86
2022/12/01 17:17:24;;;;;;;89.50;22.45;;;;;;;;;;8288772;28;20407;-88
2022/12/01 17:21:28;;;;;;;296.85;113.32;;;;;;;;;;8265062;28;20056;-85
2022/12/01 17:25:33;;;;;;;330.65;72.35;;;;;;;;;;8281082;28;20120;-86
2022/12/01 17:29:35;;;;;;;50.47;23.40;;;;;;;;;;8289151;28;20330;-89
2022/12/01 17:33:39;;;;;;;97.10;33.20;;;;;;;;;;8288203;28;20410;-85
2022/12/01 17:37:42;;;;;;;276.50;75.13;;;;;;;;;;8299798;28;20061;-90
2022/12/01 17:41:46;;;;;;;63.40;24.15;;;;;;;;;;8284993;28;20490;-85
2022/12/01 17:45:49;;;;;;;75.78;24.75;;;;;;;;;;8286401;28;20044;-84
2022/12/01 17:49:52;;;;;;;50.88;18.65;;;;;;;;;;8282562;28;20120;-83
2022/12/01 17:53:56;;;;;;;78.50;25.23;;;;;;;;;;8292220;28;20046;-92
2022/12/01 17:58:02;;;;;;;37.30;16.10;;;;;;;;;;8290512;28;20054;-84
2022/12/01 18:02:05;;;;;;;48.17;24.08;;;;;;;;;;8287238;28;20067;-93
2022/12/01 18:06:08;;;;;;;19.38;7.88;;;;;;;;;;8297039;28;20050;-92
2022/12/01 18:10:12;;;;;;;51.60;18.13;;;;;;;;;;8287030;28;20054;-91
2022/12/01 18:14:19;;;;;;;53.03;17.63;;;;;;;;;;8293544;28;20552;-88
2022/12/01 18:18:22;;;;;;;17.00;8.35;;;;;;;;;;8265534;28;20133;-90
2022/12/01 18:22:26;;;;;;;22.95;8.18;;;;;;;;;;8267877;28;20048;-89
2022/12/01 18:26:30;;;;;;;19.95;9.48;;;;;;;;;;8289539;28;20057;-92
2022/12/01 18:30:34;;;;;;;27.55;13.27;;;;;;;;;;8285660;28;20416;-85
2022/12/01 18:34:37;;;;;;;27.55;13.60;;;;;;;;;;8293684;28;20042;-85
2022/12/01 18:38:40;;;;;;;43.58;17.75;;;;;;;;;;8297199;28;20436;-88
2022/12/01 18:42:43;;;;;;;14.00;7.10;;;;;;;;;;8294744;28;20038;-88
2022/12/01 18:46:48;;;;;;;33.22;14.98;;;;;;;;;;8285994;28;20046;-90
2022/12/01 18:50:51;;;;;;;142.35;53.97;;;;;;;;;;8289747;28;20049;-90
2022/12/01 18:54:55;;;;;;;24.55;11.95;;;;;;;;;;8275311;28;20116;-89
2022/12/01 18:58:59;;;;;;;29.17;12.80;;;;;;;;;;8279714;28;20096;-90
2022/12/01 19:03:05;;;;;;;12.10;5.78;;;;;;;;;;8282103;28;20041;-90
2022/12/01 19:07:08;;;;;;;37.38;15.68;;;;;;;;;;8274420;28;20050;-89
2022/12/01 19:11:11;;;;;;;18.92;10.18;;;;;;;;;;8281202;28;20042;-86
2022/12/01 19:15:14;;;;;;;25.40;11.55;;;;;;;;;;8283398;28;20136;-92
2022/12/01 19:19:18;;;;;;;15.52;7.88;;;;;;;;;;8283935;28;20053;-90
2022/12/01 19:23:21;;;;;;;32.53;13.90;;;;;;;;;;8300684;28;20050;-91
2022/12/01 19:27:24;;;;;;;22.70;8.52;;;;;;;;;;8300202;28;20058;-85
2022/12/01 19:31:27;;;;;;;11.80;6.05;;;;;;;;;;8300648;28;20057;-90
2022/12/01 19:35:34;;;;;;;25.38;10.18;;;;;;;;;;8300134;28;20046;-89
2022/12/01 19:39:37;;;;;;;119.53;44.05;;;;;;;;;;8300106;28;20054;-89
2022/12/01 19:43:42;;;;;;;15.93;7.63;;;;;;;;;;8300139;28;20050;-82
2022/12/01 19:47:45;;;;;;;320.35;116.22;;;;;;;;;;8300055;28;20450;-88
2022/12/01 19:51:50;;;;;;;245.30;69.93;;;;;;;;;;8299706;28;20563;-89
2022/12/01 19:55:53;;;;;;;118.90;27.77;;;;;;;;;;8299629;28;20060;-89
2022/12/01 19:59:57;;;;;;;199.35;30.48;;;;;;;;;;8299726;28;20125;-82
2022/12/01 20:04:00;;;;;;;58.83;17.10;;;;;;;;;;8299664;28;20073;-90
2022/12/01 20:08:05;;;;;;;14.10;7.15;;;;;;;;;;8299067;28;20045;-89
2022/12/01 20:12:09;;;;;;;19.98;9.05;;;;;;;;;;8299560;28;20107;-85
2022/12/01 20:16:15;;;;;;;14.23;7.28;;;;;;;;;;8299450;28;20048;-91
2022/12/01 20:20:18;;;;;;;10.82;5.88;;;;;;;;;;8299378;28;20129;-84
2022/12/01 20:24:24;;;;;;;49.70;18.50;;;;;;;;;;8298355;28;20119;-85
2022/12/01 20:28:27;;;;;;;46.08;17.75;;;;;;;;;;8281055;28;20473;-85
2022/12/01 20:32:30;;;;;;;28.83;12.82;;;;;;;;;;8296661;28;20112;-81
2022/12/01 20:36:34;;;;;;;20.10;7.97;;;;;;;;;;8298143;28;20054;-90
2022/12/01 20:40:39;;;;;;;14.27;7.20;;;;;;;;;;8295821;28;20046;-90
2022/12/01 20:44:42;;;;;;;13.90;8.35;;;;;;;;;;8295397;28;20394;-89
2022/12/01 20:48:46;;;;;;;71.35;20.50;;;;;;;;;;8298888;28;20049;-88
2022/12/01 20:52:49;;;;;;;26.70;9.95;;;;;;;;;;8285501;28;20087;-91
2022/12/01 20:56:54;;;;;;;15.63;7.47;;;;;;;;;;8298333;28;20042;-84
2022/12/01 21:00:58;;;;;;;23.60;10.00;;;;;;;;;;8293803;28;20041;-88
2022/12/01 21:05:01;;;;;;;45.58;14.15;;;;;;;;;;8297312;28;20046;-89
2022/12/01 21:09:06;;;;;;;100.95;25.65;;;;;;;;;;8298322;28;20132;-91
2022/12/01 21:17:42;;;;;;;33.75;10.40;;;;;;;;;;8298617;28;20061;-90
2022/12/01 21:21:45;;;;;;;32.17;9.93;;;;;;;;;;8298193;28;20073;-90
2022/12/01 21:25:50;;;;;;;32.80;12.50;;;;;;;;;;8284067;28;20042;-90
2022/12/01 21:29:55;;;;;;;32.28;11.63;;;;;;;;;;8287650;28;20066;-85
2022/12/01 21:34:00;;;;;;;28.05;9.55;;;;;;;;;;8296121;28;20046;-86
2022/12/01 21:38:11;;;;;;;18.33;7.72;;;;;;;;;;8289493;28;20096;-90
2022/12/01 21:42:18;;;;;;;36.95;14.20;;;;;;;;;;8290256;28;20046;-87
2022/12/01 21:46:22;;;;;;;15.20;8.45;;;;;;;;;;8284044;28;20053;-87
2022/12/01 21:50:26;;;;;;;14.40;7.30;;;;;;;;;;8289641;28;20046;-92
2022/12/01 21:54:29;;;;;;;33.63;16.90;;;;;;;;;;8286239;28;20445;-89
2022/12/01 21:58:37;;;;;;;6.00;3.90;;;;;;;;;;8282035;28;20045;-87
2022/12/01 22:02:50;;;;;;;10.57;5.78;;;;;;;;;;8293290;28;20172;-90
2022/12/01 22:06:55;;;;;;;12.02;6.60;;;;;;;;;;8282903;28;20034;-90
2022/12/01 22:11:00;;;;;;;12.48;6.57;;;;;;;;;;8286180;28;20449;-87
2022/12/01 22:15:25;;;;;;;13.90;7.20;;;;;;;;;;8292402;28;20050;-88
2022/12/01 22:19:32;;;;;;;22.58;10.75;;;;;;;;;;8298619;28;20050;-87
2022/12/01 22:23:35;;;;;;;12.45;6.47;;;;;;;;;;8306830;28;20061;-87
2022/12/01 22:27:42;;;;;;;32.38;13.85;;;;;;;;;;8286900;28;20157;-88
2022/12/01 22:31:45;;;;;;;243.23;67.57;;;;;;;;;;8290703;28;20069;-91
2022/12/01 22:35:51;;;;;;;18.02;6.75;;;;;;;;;;8293681;28;20153;-90
2022/12/01 22:39:56;;;;;;;33.92;14.23;;;;;;;;;;8290061;28;20046;-91
2022/12/01 22:44:00;;;;;;;146.45;38.67;;;;;;;;;;8290035;28;20068;-90
2022/12/01 22:48:04;;;;;;;19.77;9.02;;;;;;;;;;8284009;28;20053;-89
2022/12/01 22:52:19;;;;;;;103.05;28.67;;;;;;;;;;8288096;28;20054;-89
2022/12/01 22:56:29;;;;;;;22.02;9.02;;;;;;;;;;8292908;28;20046;-88
2022/12/01 23:00:32;;;;;;;39.47;13.07;;;;;;;;;;8284747;28;20481;-91
2022/12/01 23:04:41;;;;;;;24.00;11.00;;;;;;;;;;8289773;28;20042;-89
2022/12/01 23:08:45;;;;;;;50.55;16.90;;;;;;;;;;8289295;28;20435;-88
2022/12/01 23:12:49;;;;;;;22.05;10.02;;;;;;;;;;8291937;28;20050;-91
2022/12/01 23:16:53;;;;;;;17.58;8.70;;;;;;;;;;8288890;28;20053;-93
2022/12/01 23:20:57;;;;;;;19.15;8.35;;;;;;;;;;8292688;28;20413;-85
2022/12/01 23:25:09;;;;;;;21.33;8.77;;;;;;;;;;8299053;28;20478;-90
2022/12/01 23:29:13;;;;;;;16.33;6.80;;;;;;;;;;8293708;28;20414;-85
2022/12/01 23:33:19;;;;;;;26.02;11.18;;;;;;;;;;8293265;28;20462;-84
2022/12/01 23:37:31;;;;;;;21.40;9.70;;;;;;;;;;8291064;28;20125;-88
2022/12/01 23:41:38;;;;;;;24.85;9.30;;;;;;;;;;8291927;28;20124;-90
2022/12/01 23:45:41;;;;;;;28.00;12.25;;;;;;;;;;8290768;28;20045;-90
2022/12/01 23:49:45;;;;;;;29.17;12.93;;;;;;;;;;8292229;28;20478;-91
2022/12/01 23:53:48;;;;;;;23.85;10.65;;;;;;;;;;8288927;28;20496;-85
2022/12/01 23:57:53;;;;;;;13.73;7.35;;;;;;;;;;8289628;28;20493;-86
